sensor_id;sensor_type;location;lat;lon;timestamp;pressure;altitude;pressure_sealevel;temperature;humidity
81909;BME280;71372;43.514;1.512;2024-03-23T00:53:34;100418.53;;;15.49;75.55
81909;BME280;71372;43.514;1.512;2024-03-23T00:56:00;100425.06;;;15.45;75.66
81909;BME280;71372;43.514;1.512;2024-03-23T00:58:26;100427.06;;;15.41;75.83
81909;BME280;71372;43.514;1.512;2024-03-23T01:00:52;100427.94;;;15.42;75.80
81909;BME280;71372;43.514;1.512;2024-03-23T01:03:18;100432.44;;;15.41;75.96
81909;BME280;71372;43.514;1.512;2024-03-23T01:05:44;100440.00;;;15.49;75.45
81909;BME280;71372;43.514;1.512;2024-03-23T01:08:10;100440.09;;;15.47;75.49
81909;BME280;71372;43.514;1.512;2024-03-23T01:10:35;100440.94;;;15.48;75.57
81909;BME280;71372;43.514;1.512;2024-03-23T01:13:01;100450.16;;;15.44;75.72
81909;BME280;71372;43.514;1.512;2024-03-23T01:15:27;100442.31;;;15.55;75.21
81909;BME280;71372;43.514;1.512;2024-03-23T01:17:53;100446.59;;;15.58;74.82
81909;BME280;71372;43.514;1.512;2024-03-23T01:20:19;100445.66;;;15.44;75.48
81909;BME280;71372;43.514;1.512;2024-03-23T01:22:45;100454.56;;;15.45;75.57
81909;BME280;71372;43.514;1.512;2024-03-23T01:25:11;100442.41;;;15.54;75.29
81909;BME280;71372;43.514;1.512;2024-03-23T01:27:37;100444.31;;;15.52;74.80
81909;BME280;71372;43.514;1.512;2024-03-23T01:30:03;100452.53;;;15.48;75.18
81909;BME280;71372;43.514;1.512;2024-03-23T01:32:29;100451.59;;;15.49;75.09
81909;BME280;71372;43.514;1.512;2024-03-23T01:34:55;100457.75;;;15.52;75.25
81909;BME280;71372;43.514;1.512;2024-03-23T01:37:21;100452.75;;;15.45;75.36
81909;BME280;71372;43.514;1.512;2024-03-23T01:39:47;100449.84;;;15.34;75.79
81909;BME280;71372;43.514;1.512;2024-03-23T01:42:13;100454.16;;;15.37;75.69
81909;BME280;71372;43.514;1.512;2024-03-23T01:44:39;100449.97;;;15.33;75.91
81909;BME280;71372;43.514;1.512;2024-03-23T01:47:06;100459.44;;;15.38;75.43
81909;BME280;71372;43.514;1.512;2024-03-23T01:49:33;100454.66;;;15.29;75.81
81909;BME280;71372;43.514;1.512;2024-03-23T01:51:59;100459.16;;;15.29;75.78
81909;BME280;71372;43.514;1.512;2024-03-23T01:54:25;100467.22;;;15.29;75.69
81909;BME280;71372;43.514;1.512;2024-03-23T01:56:51;100462.31;;;15.35;75.66
81909;BME280;71372;43.514;1.512;2024-03-23T01:59:18;100471.91;;;15.39;75.20
81909;BME280;71372;43.514;1.512;2024-03-23T02:01:44;100479.28;;;15.36;75.46
81909;BME280;71372;43.514;1.512;2024-03-23T02:04:10;100478.41;;;15.35;75.08
81909;BME280;71372;43.514;1.512;2024-03-23T02:06:36;100486.09;;;15.41;74.52
81909;BME280;71372;43.514;1.512;2024-03-23T02:09:03;100481.28;;;15.46;74.33
81909;BME280;71372;43.514;1.512;2024-03-23T02:11:29;100479.66;;;15.44;73.99
81909;BME280;71372;43.514;1.512;2024-03-23T02:13:55;100483.00;;;15.33;73.86
81909;BME280;71372;43.514;1.512;2024-03-23T02:16:21;100485.78;;;15.32;73.66
81909;BME280;71372;43.514;1.512;2024-03-23T02:18:47;100490.84;;;15.22;73.65
81909;BME280;71372;43.514;1.512;2024-03-23T02:21:13;100488.94;;;15.24;73.42
81909;BME280;71372;43.514;1.512;2024-03-23T02:23:39;100486.72;;;15.16;72.92
81909;BME280;71372;43.514;1.512;2024-03-23T02:26:04;100498.47;;;15.14;72.66
81909;BME280;71372;43.514;1.512;2024-03-23T02:28:30;100497.63;;;15.13;72.40
81909;BME280;71372;43.514;1.512;2024-03-23T02:30:56;100490.38;;;15.15;72.19
81909;BME280;71372;43.514;1.512;2024-03-23T02:33:22;100496.19;;;15.08;71.96
81909;BME280;71372;43.514;1.512;2024-03-23T02:35:49;100500.91;;;15.18;71.54
81909;BME280;71372;43.514;1.512;2024-03-23T02:38:15;100506.63;;;15.12;71.18
81909;BME280;71372;43.514;1.512;2024-03-23T02:40:41;100500.13;;;15.16;70.98
81909;BME280;71372;43.514;1.512;2024-03-23T02:43:07;100508.22;;;15.01;70.53
81909;BME280;71372;43.514;1.512;2024-03-23T02:45:33;100519.63;;;15.04;70.24
81909;BME280;71372;43.514;1.512;2024-03-23T02:47:59;100523.97;;;15.07;69.91
81909;BME280;71372;43.514;1.512;2024-03-23T02:50:24;100526.13;;;15.00;68.73
81909;BME280;71372;43.514;1.512;2024-03-23T02:52:50;100531.75;;;14.96;69.00
81909;BME280;71372;43.514;1.512;2024-03-23T02:55:16;100527.31;;;14.80;68.09
81909;BME280;71372;43.514;1.512;2024-03-23T02:57:42;100527.38;;;14.79;67.91
81909;BME280;71372;43.514;1.512;2024-03-23T03:00:08;100522.09;;;14.77;67.34
81909;BME280;71372;43.514;1.512;2024-03-23T03:02:36;100516.59;;;14.65;67.04
81909;BME280;71372;43.514;1.512;2024-03-23T03:05:04;100516.88;;;14.60;67.44
81909;BME280;71372;43.514;1.512;2024-03-23T03:07:31;100520.25;;;14.48;66.90
81909;BME280;71372;43.514;1.512;2024-03-23T03:09:57;100513.47;;;14.41;66.66
81909;BME280;71372;43.514;1.512;2024-03-23T03:12:23;100501.19;;;14.37;66.50
81909;BME280;71372;43.514;1.512;2024-03-23T03:14:49;100515.47;;;14.21;66.52
81909;BME280;71372;43.514;1.512;2024-03-23T03:17:15;100513.88;;;14.17;66.67
81909;BME280;71372;43.514;1.512;2024-03-23T03:19:41;100514.66;;;14.03;67.07
81909;BME280;71372;43.514;1.512;2024-03-23T03:22:07;100524.00;;;14.12;67.20
81909;BME280;71372;43.514;1.512;2024-03-23T03:24:33;100532.97;;;14.11;67.14
81909;BME280;71372;43.514;1.512;2024-03-23T03:26:59;100540.25;;;14.09;67.10
81909;BME280;71372;43.514;1.512;2024-03-23T03:29:25;100542.13;;;14.07;67.08
81909;BME280;71372;43.514;1.512;2024-03-23T03:31:51;100544.19;;;14.02;67.65
81909;BME280;71372;43.514;1.512;2024-03-23T03:34:17;100554.00;;;13.86;68.37
81909;BME280;71372;43.514;1.512;2024-03-23T03:36:43;100559.00;;;13.92;68.14
81909;BME280;71372;43.514;1.512;2024-03-23T03:39:08;100553.06;;;13.87;68.16
81909;BME280;71372;43.514;1.512;2024-03-23T03:41:35;100553.53;;;13.78;68.89
81909;BME280;71372;43.514;1.512;2024-03-23T03:44:01;100552.59;;;13.79;68.68
81909;BME280;71372;43.514;1.512;2024-03-23T03:46:30;100545.69;;;13.74;68.83
81909;BME280;71372;43.514;1.512;2024-03-23T03:48:56;100547.25;;;13.79;68.57
81909;BME280;71372;43.514;1.512;2024-03-23T03:51:22;100562.91;;;13.69;68.75
81909;BME280;71372;43.514;1.512;2024-03-23T03:53:48;100559.72;;;13.62;69.36
81909;BME280;71372;43.514;1.512;2024-03-23T03:56:14;100560.81;;;13.58;69.35
81909;BME280;71372;43.514;1.512;2024-03-23T03:58:40;100578.09;;;13.68;68.71
81909;BME280;71372;43.514;1.512;2024-03-23T04:01:06;100567.19;;;13.56;69.46
81909;BME280;71372;43.514;1.512;2024-03-23T04:03:32;100580.25;;;13.62;69.31
81909;BME280;71372;43.514;1.512;2024-03-23T04:05:58;100573.78;;;13.66;68.89
81909;BME280;71372;43.514;1.512;2024-03-23T04:08:24;100581.91;;;13.64;68.76
81909;BME280;71372;43.514;1.512;2024-03-23T04:10:50;100582.94;;;13.62;68.83
81909;BME280;71372;43.514;1.512;2024-03-23T04:13:15;100588.66;;;13.54;69.00
81909;BME280;71372;43.514;1.512;2024-03-23T04:15:42;100604.41;;;13.43;69.39
81909;BME280;71372;43.514;1.512;2024-03-23T04:18:08;100610.22;;;13.34;69.14
81909;BME280;71372;43.514;1.512;2024-03-23T04:20:34;100608.81;;;13.27;69.68
81909;BME280;71372;43.514;1.512;2024-03-23T04:23:00;100626.78;;;13.23;69.79
81909;BME280;71372;43.514;1.512;2024-03-23T04:25:26;100628.59;;;13.23;69.31
81909;BME280;71372;43.514;1.512;2024-03-23T04:27:52;100619.63;;;13.24;69.61
81909;BME280;71372;43.514;1.512;2024-03-23T04:30:18;100635.06;;;13.19;69.77
81909;BME280;71372;43.514;1.512;2024-03-23T04:32:45;100638.66;;;13.17;69.44
81909;BME280;71372;43.514;1.512;2024-03-23T04:35:11;100651.28;;;13.14;69.29
81909;BME280;71372;43.514;1.512;2024-03-23T04:37:37;100649.69;;;13.10;69.35
81909;BME280;71372;43.514;1.512;2024-03-23T04:40:06;100654.63;;;13.00;69.01
81909;BME280;71372;43.514;1.512;2024-03-23T04:42:33;100659.97;;;13.00;68.83
81909;BME280;71372;43.514;1.512;2024-03-23T04:44:59;100656.50;;;12.98;69.30
81909;BME280;71372;43.514;1.512;2024-03-23T04:47:25;100665.19;;;13.03;68.62
81909;BME280;71372;43.514;1.512;2024-03-23T04:49:52;100668.66;;;13.05;68.34
81909;BME280;71372;43.514;1.512;2024-03-23T04:52:18;100671.69;;;12.98;68.96
81909;BME280;71372;43.514;1.512;2024-03-23T04:54:44;100681.22;;;13.03;68.28
81909;BME280;71372;43.514;1.512;2024-03-23T04:57:11;100689.28;;;13.02;68.51
81909;BME280;71372;43.514;1.512;2024-03-23T04:59:37;100692.91;;;13.01;68.39
81909;BME280;71372;43.514;1.512;2024-03-23T05:02:03;100679.00;;;12.94;68.38
81909;BME280;71372;43.514;1.512;2024-03-23T05:04:29;100684.09;;;12.99;68.10
81909;BME280;71372;43.514;1.512;2024-03-23T05:06:55;100681.59;;;12.96;67.88
81909;BME280;71372;43.514;1.512;2024-03-23T05:09:21;100675.31;;;12.97;68.08
81909;BME280;71372;43.514;1.512;2024-03-23T05:11:47;100668.81;;;13.02;67.81
81909;BME280;71372;43.514;1.512;2024-03-23T05:14:13;100668.38;;;12.93;67.53
81909;BME280;71372;43.514;1.512;2024-03-23T05:16:39;100670.66;;;13.00;67.62
81909;BME280;71372;43.514;1.512;2024-03-23T05:19:05;100678.75;;;12.99;67.75
81909;BME280;71372;43.514;1.512;2024-03-23T05:21:31;100668.16;;;12.97;67.80
81909;BME280;71372;43.514;1.512;2024-03-23T05:23:57;100677.09;;;12.96;67.39
81909;BME280;71372;43.514;1.512;2024-03-23T05:26:23;100680.56;;;12.98;67.73
81909;BME280;71372;43.514;1.512;2024-03-23T05:28:49;100683.03;;;13.03;67.71
81909;BME280;71372;43.514;1.512;2024-03-23T05:31:33;100684.84;;;13.02;67.17
81909;BME280;71372;43.514;1.512;2024-03-23T05:33:59;100685.13;;;12.96;67.43
81909;BME280;71372;43.514;1.512;2024-03-23T05:36:25;100691.34;;;12.97;67.34
81909;BME280;71372;43.514;1.512;2024-03-23T05:38:51;100690.63;;;12.93;67.61
81909;BME280;71372;43.514;1.512;2024-03-23T05:41:17;100687.88;;;12.95;67.73
81909;BME280;71372;43.514;1.512;2024-03-23T05:43:43;100690.19;;;12.83;67.64
81909;BME280;71372;43.514;1.512;2024-03-23T05:46:09;100693.22;;;12.95;67.67
81909;BME280;71372;43.514;1.512;2024-03-23T05:48:35;100699.59;;;12.92;67.89
81909;BME280;71372;43.514;1.512;2024-03-23T05:51:01;100704.78;;;12.95;67.72
81909;BME280;71372;43.514;1.512;2024-03-23T05:53:31;100706.22;;;13.02;67.33
81909;BME280;71372;43.514;1.512;2024-03-23T05:56:04;100711.56;;;13.02;67.56
81909;BME280;71372;43.514;1.512;2024-03-23T05:58:30;100705.63;;;12.96;68.34
81909;BME280;71372;43.514;1.512;2024-03-23T06:01:01;100707.28;;;12.98;68.13
81909;BME280;71372;43.514;1.512;2024-03-23T06:03:28;100708.09;;;13.00;68.18
81909;BME280;71372;43.514;1.512;2024-03-23T06:05:54;100702.75;;;13.00;68.28
81909;BME280;71372;43.514;1.512;2024-03-23T06:08:21;100707.38;;;12.97;68.33
81909;BME280;71372;43.514;1.512;2024-03-23T06:10:47;100707.44;;;12.95;68.85
81909;BME280;71372;43.514;1.512;2024-03-23T06:13:13;100709.09;;;12.98;68.54
81909;BME280;71372;43.514;1.512;2024-03-23T06:15:40;100710.41;;;12.89;69.20
81909;BME280;71372;43.514;1.512;2024-03-23T06:18:06;100721.09;;;12.89;69.25
81909;BME280;71372;43.514;1.512;2024-03-23T06:20:33;100718.66;;;13.03;68.65
81909;BME280;71372;43.514;1.512;2024-03-23T06:23:02;100724.78;;;13.05;69.04
81909;BME280;71372;43.514;1.512;2024-03-23T06:25:29;100719.09;;;12.94;69.84
81909;BME280;71372;43.514;1.512;2024-03-23T06:27:55;100728.16;;;12.90;70.35
81909;BME280;71372;43.514;1.512;2024-03-23T06:30:21;100722.78;;;12.92;70.46
81909;BME280;71372;43.514;1.512;2024-03-23T06:32:47;100728.75;;;12.97;70.11
81909;BME280;71372;43.514;1.512;2024-03-23T06:35:13;100730.84;;;12.90;70.87
81909;BME280;71372;43.514;1.512;2024-03-23T06:37:39;100734.44;;;12.89;70.94
81909;BME280;71372;43.514;1.512;2024-03-23T06:40:07;100733.81;;;12.84;71.21
81909;BME280;71372;43.514;1.512;2024-03-23T06:42:36;100734.44;;;12.89;70.81
81909;BME280;71372;43.514;1.512;2024-03-23T06:45:02;100735.81;;;12.98;71.00
81909;BME280;71372;43.514;1.512;2024-03-23T06:47:30;100749.63;;;12.88;71.10
81909;BME280;71372;43.514;1.512;2024-03-23T06:49:56;100753.16;;;12.89;71.59
81909;BME280;71372;43.514;1.512;2024-03-23T06:52:22;100747.53;;;12.95;71.51
81909;BME280;71372;43.514;1.512;2024-03-23T06:54:48;100754.88;;;12.90;71.63
81909;BME280;71372;43.514;1.512;2024-03-23T06:57:14;100759.31;;;12.91;71.91
81909;BME280;71372;43.514;1.512;2024-03-23T06:59:40;100762.28;;;13.04;71.58
81909;BME280;71372;43.514;1.512;2024-03-23T07:02:06;100759.63;;;13.04;71.99
81909;BME280;71372;43.514;1.512;2024-03-23T07:04:35;100763.63;;;13.12;72.22
81909;BME280;71372;43.514;1.512;2024-03-23T07:07:01;100765.25;;;13.16;72.18
81909;BME280;71372;43.514;1.512;2024-03-23T07:09:30;100767.25;;;13.11;72.32
81909;BME280;71372;43.514;1.512;2024-03-23T07:11:59;100763.00;;;13.07;73.22
81909;BME280;71372;43.514;1.512;2024-03-23T07:14:25;100771.97;;;13.06;73.06
81909;BME280;71372;43.514;1.512;2024-03-23T07:16:51;100771.16;;;13.04;73.45
81909;BME280;71372;43.514;1.512;2024-03-23T07:19:17;100776.72;;;13.00;73.49
81909;BME280;71372;43.514;1.512;2024-03-23T07:21:46;100775.72;;;13.02;73.59
81909;BME280;71372;43.514;1.512;2024-03-23T07:24:13;100775.22;;;12.94;74.43
81909;BME280;71372;43.514;1.512;2024-03-23T07:26:39;100776.41;;;12.87;75.11
81909;BME280;71372;43.514;1.512;2024-03-23T07:29:06;100774.75;;;12.84;74.96
81909;BME280;71372;43.514;1.512;2024-03-23T07:31:32;100769.19;;;12.89;75.15
81909;BME280;71372;43.514;1.512;2024-03-23T07:33:58;100779.50;;;12.78;75.94
81909;BME280;71372;43.514;1.512;2024-03-23T07:36:24;100777.75;;;12.58;76.54
81909;BME280;71372;43.514;1.512;2024-03-23T07:38:50;100793.47;;;12.45;77.03
81909;BME280;71372;43.514;1.512;2024-03-23T07:41:18;100784.69;;;12.42;77.13
81909;BME280;71372;43.514;1.512;2024-03-23T07:43:46;100785.38;;;12.26;77.73
81909;BME280;71372;43.514;1.512;2024-03-23T07:46:12;100794.09;;;12.30;77.77
81909;BME280;71372;43.514;1.512;2024-03-23T07:48:39;100797.47;;;12.35;77.09
81909;BME280;71372;43.514;1.512;2024-03-23T07:51:10;100805.03;;;12.04;78.95
81909;BME280;71372;43.514;1.512;2024-03-23T07:53:36;100801.03;;;12.14;77.83
81909;BME280;71372;43.514;1.512;2024-03-23T07:56:07;100818.41;;;12.24;76.92
81909;BME280;71372;43.514;1.512;2024-03-23T07:58:34;100828.94;;;12.27;76.50
81909;BME280;71372;43.514;1.512;2024-03-23T08:01:09;100822.94;;;12.22;76.07
81909;BME280;71372;43.514;1.512;2024-03-23T08:03:37;100839.78;;;12.24;76.02
81909;BME280;71372;43.514;1.512;2024-03-23T08:06:16;100835.94;;;12.09;76.33
81909;BME280;71372;43.514;1.512;2024-03-23T08:08:44;100842.91;;;11.91;76.33
81909;BME280;71372;43.514;1.512;2024-03-23T08:11:10;100846.97;;;11.78;77.34
81909;BME280;71372;43.514;1.512;2024-03-23T08:13:38;100840.03;;;11.74;76.78
81909;BME280;71372;43.514;1.512;2024-03-23T08:16:05;100858.63;;;11.76;76.46
81909;BME280;71372;43.514;1.512;2024-03-23T08:18:31;100854.19;;;11.76;76.33
81909;BME280;71372;43.514;1.512;2024-03-23T08:21:03;100870.47;;;11.68;76.62
81909;BME280;71372;43.514;1.512;2024-03-23T08:23:31;100873.06;;;11.70;76.45
81909;BME280;71372;43.514;1.512;2024-03-23T08:26:03;100878.78;;;11.61;77.31
81909;BME280;71372;43.514;1.512;2024-03-23T08:28:29;100890.13;;;11.66;76.76
81909;BME280;71372;43.514;1.512;2024-03-23T08:30:56;100880.53;;;11.62;76.64
81909;BME280;71372;43.514;1.512;2024-03-23T08:33:23;100893.88;;;11.62;76.56
81909;BME280;71372;43.514;1.512;2024-03-23T08:36:03;100887.91;;;11.77;76.16
81909;BME280;71372;43.514;1.512;2024-03-23T08:38:29;100911.59;;;11.86;76.04
81909;BME280;71372;43.514;1.512;2024-03-23T08:40:59;100913.66;;;12.02;75.41
81909;BME280;71372;43.514;1.512;2024-03-23T08:43:26;100918.13;;;12.01;75.15
81909;BME280;71372;43.514;1.512;2024-03-23T08:45:52;100922.22;;;12.10;74.66
81909;BME280;71372;43.514;1.512;2024-03-23T08:48:21;100912.03;;;12.19;74.72
81909;BME280;71372;43.514;1.512;2024-03-23T08:50:47;100920.94;;;12.20;74.60
81909;BME280;71372;43.514;1.512;2024-03-23T08:53:23;100922.66;;;12.21;74.39
81909;BME280;71372;43.514;1.512;2024-03-23T08:55:58;100929.72;;;12.00;74.42
81909;BME280;71372;43.514;1.512;2024-03-23T08:58:25;100932.03;;;12.09;74.49
81909;BME280;71372;43.514;1.512;2024-03-23T09:00:52;100930.25;;;12.10;74.54
81909;BME280;71372;43.514;1.512;2024-03-23T09:03:18;100932.09;;;12.08;74.36
81909;BME280;71372;43.514;1.512;2024-03-23T09:05:44;100925.69;;;12.12;73.85
81909;BME280;71372;43.514;1.512;2024-03-23T09:08:10;100933.50;;;12.16;73.35
81909;BME280;71372;43.514;1.512;2024-03-23T09:10:39;100935.38;;;12.14;73.69
81909;BME280;71372;43.514;1.512;2024-03-23T09:13:06;100930.09;;;12.13;73.46
81909;BME280;71372;43.514;1.512;2024-03-23T09:15:36;100935.50;;;12.11;73.32
81909;BME280;71372;43.514;1.512;2024-03-23T09:18:03;100934.06;;;12.03;73.56
81909;BME280;71372;43.514;1.512;2024-03-23T09:20:33;100938.97;;;12.13;73.08
81909;BME280;71372;43.514;1.512;2024-03-23T09:22:59;100928.66;;;12.04;72.38
81909;BME280;71372;43.514;1.512;2024-03-23T09:25:25;100930.31;;;12.08;72.50
81909;BME280;71372;43.514;1.512;2024-03-23T09:27:52;100936.88;;;12.21;72.10
81909;BME280;71372;43.514;1.512;2024-03-23T09:30:18;100936.31;;;12.35;71.97
81909;BME280;71372;43.514;1.512;2024-03-23T09:32:45;100935.06;;;12.64;71.62
81909;BME280;71372;43.514;1.512;2024-03-23T09:35:12;100943.09;;;12.84;70.61
81909;BME280;71372;43.514;1.512;2024-03-23T09:37:38;100947.16;;;13.13;69.78
81909;BME280;71372;43.514;1.512;2024-03-23T09:40:11;100939.00;;;13.37;68.74
81909;BME280;71372;43.514;1.512;2024-03-23T09:42:37;100949.34;;;13.65;67.73
81909;BME280;71372;43.514;1.512;2024-03-23T09:45:13;100946.59;;;13.85;65.27
81909;BME280;71372;43.514;1.512;2024-03-23T09:47:42;100942.75;;;13.91;64.80
81909;BME280;71372;43.514;1.512;2024-03-23T09:50:09;100941.16;;;13.87;63.55
81909;BME280;71372;43.514;1.512;2024-03-23T09:52:35;100941.28;;;13.84;62.82
81909;BME280;71372;43.514;1.512;2024-03-23T09:55:01;100945.84;;;13.82;61.84
81909;BME280;71372;43.514;1.512;2024-03-23T09:57:27;100934.28;;;13.81;61.89
81909;BME280;71372;43.514;1.512;2024-03-23T09:59:53;100933.56;;;13.78;61.80
81909;BME280;71372;43.514;1.512;2024-03-23T10:02:20;100934.78;;;13.70;61.91
81909;BME280;71372;43.514;1.512;2024-03-23T10:04:47;100927.63;;;13.71;61.55
81909;BME280;71372;43.514;1.512;2024-03-23T10:07:14;100928.94;;;13.62;60.82
81909;BME280;71372;43.514;1.512;2024-03-23T10:09:40;100921.22;;;13.75;60.79
81909;BME280;71372;43.514;1.512;2024-03-23T10:12:11;100928.78;;;13.84;60.26
81909;BME280;71372;43.514;1.512;2024-03-23T10:14:37;100926.69;;;13.91;59.10
81909;BME280;71372;43.514;1.512;2024-03-23T10:17:14;100918.94;;;13.85;57.38
81909;BME280;71372;43.514;1.512;2024-03-23T10:19:46;100921.75;;;14.00;58.36
81909;BME280;71372;43.514;1.512;2024-03-23T10:22:23;100914.06;;;14.12;58.29
81909;BME280;71372;43.514;1.512;2024-03-23T10:24:52;100909.75;;;14.26;57.83
81909;BME280;71372;43.514;1.512;2024-03-23T10:27:20;100910.03;;;14.39;57.40
81909;BME280;71372;43.514;1.512;2024-03-23T10:29:47;100907.94;;;14.46;57.10
81909;BME280;71372;43.514;1.512;2024-03-23T10:32:14;100911.25;;;14.51;56.68
81909;BME280;71372;43.514;1.512;2024-03-23T10:34:41;100907.56;;;14.71;56.75
81909;BME280;71372;43.514;1.512;2024-03-23T10:37:07;100903.81;;;14.90;56.69
81909;BME280;71372;43.514;1.512;2024-03-23T10:39:35;100900.28;;;14.90;55.15
81909;BME280;71372;43.514;1.512;2024-03-23T10:42:03;100903.69;;;14.94;55.18
81909;BME280;71372;43.514;1.512;2024-03-23T10:44:30;100887.16;;;15.01;54.20
81909;BME280;71372;43.514;1.512;2024-03-23T10:47:00;100882.22;;;14.94;54.30
81909;BME280;71372;43.514;1.512;2024-03-23T10:49:33;100882.66;;;15.02;54.18
81909;BME280;71372;43.514;1.512;2024-03-23T10:52:01;100880.34;;;14.96;54.13
81909;BME280;71372;43.514;1.512;2024-03-23T10:54:27;100893.41;;;15.02;54.51
81909;BME280;71372;43.514;1.512;2024-03-23T10:56:59;100872.38;;;14.94;54.41
81909;BME280;71372;43.514;1.512;2024-03-23T10:59:27;100870.28;;;14.99;52.93
81909;BME280;71372;43.514;1.512;2024-03-23T11:01:58;100864.72;;;14.86;52.48
81909;BME280;71372;43.514;1.512;2024-03-23T11:04:35;100864.31;;;14.94;52.73
81909;BME280;71372;43.514;1.512;2024-03-23T11:07:02;100857.94;;;14.97;53.42
81909;BME280;71372;43.514;1.512;2024-03-23T11:09:43;100858.72;;;14.99;52.14
81909;BME280;71372;43.514;1.512;2024-03-23T11:14:43;100842.44;;;15.02;53.41
81909;BME280;71372;43.514;1.512;2024-03-23T11:17:10;100848.31;;;14.93;52.62
81909;BME280;71372;43.514;1.512;2024-03-23T11:19:37;100847.28;;;14.95;53.15
81909;BME280;71372;43.514;1.512;2024-03-23T11:22:04;100840.03;;;15.13;52.92
81909;BME280;71372;43.514;1.512;2024-03-23T11:24:31;100839.47;;;15.24;53.07
81909;BME280;71372;43.514;1.512;2024-03-23T11:26:57;100822.97;;;15.31;52.86
81909;BME280;71372;43.514;1.512;2024-03-23T11:29:27;100830.41;;;15.42;53.14
81909;BME280;71372;43.514;1.512;2024-03-23T11:31:55;100810.84;;;15.40;51.28
81909;BME280;71372;43.514;1.512;2024-03-23T11:34:21;100811.78;;;15.39;50.83
81909;BME280;71372;43.514;1.512;2024-03-23T11:36:48;100814.31;;;15.42;52.03
81909;BME280;71372;43.514;1.512;2024-03-23T11:39:15;100806.94;;;15.45;51.46
81909;BME280;71372;43.514;1.512;2024-03-23T11:41:52;100796.75;;;15.52;51.13
81909;BME280;71372;43.514;1.512;2024-03-23T11:44:26;100799.06;;;15.58;51.41
81909;BME280;71372;43.514;1.512;2024-03-23T11:46:52;100794.06;;;15.68;51.57
81909;BME280;71372;43.514;1.512;2024-03-23T11:49:22;100775.63;;;15.77;51.07
81909;BME280;71372;43.514;1.512;2024-03-23T11:51:49;100779.06;;;15.79;50.92
81909;BME280;71372;43.514;1.512;2024-03-23T11:54:15;100783.91;;;15.73;49.71
81909;BME280;71372;43.514;1.512;2024-03-23T11:56:58;100768.25;;;15.49;47.07
81909;BME280;71372;43.514;1.512;2024-03-23T11:59:50;100769.38;;;15.45;48.22
81909;BME280;71372;43.514;1.512;2024-03-23T12:02:18;100766.00;;;15.42;47.70
81909;BME280;71372;43.514;1.512;2024-03-23T12:04:44;100772.94;;;15.46;48.33
81909;BME280;71372;43.514;1.512;2024-03-23T12:09:47;100769.91;;;15.68;48.20
81909;BME280;71372;43.514;1.512;2024-03-23T12:15:02;100757.84;;;15.59;48.00
81909;BME280;71372;43.514;1.512;2024-03-23T12:17:27;100750.84;;;15.72;48.00
81909;BME280;71372;43.514;1.512;2024-03-23T12:19:53;100753.91;;;15.66;47.84
81909;BME280;71372;43.514;1.512;2024-03-23T12:22:22;100746.09;;;15.62;47.21
81909;BME280;71372;43.514;1.512;2024-03-23T12:24:48;100739.44;;;15.69;48.33
81909;BME280;71372;43.514;1.512;2024-03-23T12:27:15;100728.78;;;15.67;47.48
81909;BME280;71372;43.514;1.512;2024-03-23T12:29:41;100723.91;;;15.58;47.40
81909;BME280;71372;43.514;1.512;2024-03-23T12:32:12;100733.78;;;15.73;47.74
81909;BME280;71372;43.514;1.512;2024-03-23T12:34:39;100737.50;;;15.71;47.70
81909;BME280;71372;43.514;1.512;2024-03-23T12:37:05;100727.97;;;15.81;47.84
81909;BME280;71372;43.514;1.512;2024-03-23T12:39:35;100720.78;;;15.82;47.21
81909;BME280;71372;43.514;1.512;2024-03-23T12:42:02;100707.88;;;15.88;47.20
81909;BME280;71372;43.514;1.512;2024-03-23T12:44:30;100715.34;;;15.97;47.58
81909;BME280;71372;43.514;1.512;2024-03-23T12:46:57;100706.38;;;15.98;47.59
81909;BME280;71372;43.514;1.512;2024-03-23T12:49:23;100692.31;;;15.93;46.85
81909;BME280;71372;43.514;1.512;2024-03-23T12:51:56;100699.06;;;16.00;46.64
81909;BME280;71372;43.514;1.512;2024-03-23T12:54:22;100696.75;;;16.08;46.87
81909;BME280;71372;43.514;1.512;2024-03-23T12:56:49;100685.44;;;15.89;45.95
81909;BME280;71372;43.514;1.512;2024-03-23T12:59:15;100674.91;;;16.00;46.41
81909;BME280;71372;43.514;1.512;2024-03-23T13:01:42;100674.13;;;15.98;45.79
81909;BME280;71372;43.514;1.512;2024-03-23T13:04:09;100675.47;;;16.05;45.76
81909;BME280;71372;43.514;1.512;2024-03-23T13:06:35;100666.84;;;16.15;45.93
81909;BME280;71372;43.514;1.512;2024-03-23T13:09:01;100662.25;;;16.17;45.66
81909;BME280;71372;43.514;1.512;2024-03-23T13:11:29;100658.13;;;16.11;45.66
81909;BME280;71372;43.514;1.512;2024-03-23T13:13:55;100658.41;;;16.21;45.86
81909;BME280;71372;43.514;1.512;2024-03-23T13:16:21;100654.19;;;16.17;44.96
81909;BME280;71372;43.514;1.512;2024-03-23T13:18:47;100649.69;;;16.31;44.71
81909;BME280;71372;43.514;1.512;2024-03-23T13:21:13;100646.63;;;16.37;45.51
81909;BME280;71372;43.514;1.512;2024-03-23T13:23:39;100636.44;;;16.43;45.53
81909;BME280;71372;43.514;1.512;2024-03-23T13:26:08;100634.44;;;16.46;45.53
81909;BME280;71372;43.514;1.512;2024-03-23T13:28:34;100633.47;;;16.47;45.13
81909;BME280;71372;43.514;1.512;2024-03-23T13:31:01;100625.09;;;16.52;45.66
81909;BME280;71372;43.514;1.512;2024-03-23T13:33:32;100630.97;;;16.44;44.46
81909;BME280;71372;43.514;1.512;2024-03-23T13:35:58;100616.56;;;16.45;45.46
81909;BME280;71372;43.514;1.512;2024-03-23T13:38:24;100611.56;;;16.53;45.73
81909;BME280;71372;43.514;1.512;2024-03-23T13:40:57;100609.28;;;16.47;44.70
81909;BME280;71372;43.514;1.512;2024-03-23T13:43:25;100616.31;;;16.35;44.74
81909;BME280;71372;43.514;1.512;2024-03-23T13:45:58;100610.84;;;16.23;44.46
81909;BME280;71372;43.514;1.512;2024-03-23T13:48:25;100609.09;;;16.36;45.45
81909;BME280;71372;43.514;1.512;2024-03-23T13:51:02;100603.25;;;16.29;44.60